ADDS TAF Board (Experimental) INFO Settings
IDs: Format: Expanded Condensed

KDTW - Detroit Metro/Wayne, MI, US

Issued at 0521 UTC 27 May 2016
Updated at: 0823 UTC 27 May 2016
Time0753Z 27/09Z 27/10Z 27/11Z 27/12Z 27/13Z 27/14Z 27/15Z 27/16Z 27/17Z 27/18Z 27/19Z 27/20Z 27/21Z
Type OBS PRVL PRVL PRVL PRVL PRVL PRVL PRVL PRVL PRVL PRVL PRVL PRVL PRVL
  [PRB30]  
VIS 6 >6 4 4 4 >6 >6 >6 >6 >6 >6 >6 >6 >6
  [6]  
CIG 220 200 200 200 200 -- -- -- 40 40 40 40 40 40
  [35]  
Cover BKN BKN BKN BKN BKN SCT SCT SCT BKN BKN BKN BKN BKN BKN
  [OVC]  
FltCat VFR VFR MVFR MVFR MVFR VFR VFR VFR VFR VFR VFR VFR VFR VFR
  [VFR]  
WX HZ -- BR BR BR -- -- -- -- -- -- -- -- --
  [TSRA]  
WDir 210 200 190 190 190 200 200 200 190 190 190 190 190 190
[190]
WSpd 8 4 4 4 4 7 7 7 10 10 10 10 10 10
  [10]  
WGst -- -- -- -- -- -- -- -- -- -- -- -- -- --
  [--]  
R03/21
XWnd 0 -1 -1 -1 -1 -1 -1 -1 -3 -3 -3 -3 -3 -3
XGst -- -- -- -- -- -- -- -- -- -- -- -- -- 0
HWnd -8 -4 -4 -4 -4 -7 -7 -7 -9 -9 -9 -9 -9 -9
HGst -- -- -- -- -- -- -- -- -- -- -- -- -- 0
R04/22
XWnd 0 -1 -1 -1 -1 -1 -1 -1 -3 -3 -3 -3 -3 -3
XGst -- -- -- -- -- -- -- -- -- -- -- -- -- 0
HWnd -8 -4 -4 -4 -4 -7 -7 -7 -9 -9 -9 -9 -9 -9
HGst -- -- -- -- -- -- -- -- -- -- -- -- -- 0
R09/27
XWnd -7 -4 -4 -4 -4 -7 -7 -7 -10 -10 -10 -10 -10 -10
XGst -- -- -- -- -- -- -- -- -- -- -- -- -- 0
HWnd -4 -1 -1 -1 -1 -3 -3 -3 -2 -2 -2 -2 -2 -2
HGst -- -- -- -- -- -- -- -- -- -- -- -- -- 0

NOTE: TEMPO conditions in [brackets]. Keep in mind TEMPO conditions might be better (lower impact) than prevailing conditions.

Raw TAF
KDTW 270521Z 2706/2812 20004KT P6SM SCT060 BKN200
  FM271000 19004KT 4SM BR SCT025 BKN200
  FM271300 20007KT P6SM SCT035
  FM271600 19010KT P6SM BKN040
  PROB30 2721/2724 6SM TSRA OVC035CB
  FM280100 20006KT P6SM SCT060 BKN200


Raw METAR
KDTW 270753Z 21008KT 6SM HZ BKN220 21/17 A2995 RMK AO2 SLP136 T02060172
KDTW 270653Z 21005KT 7SM BKN220 21/18 A2994 RMK AO2 SLP134 T02060178
KDTW 270553Z 17005KT 7SM FEW055 BKN220 22/18 A2994 RMK AO2 SLP133 T02170183 10283 20217 58002

METAR Board
Radar Display
Forecast Discussion

TAF Board Legend

Potential Impact
Threat None Slight Moderate High
Visibility (sm) ≥5.1 5.1>X≥3 3>X≥1 <1
Ceiling (100 ft) ≥30.1 30.1>X≥10 10>X≥5 <5
Wind Speed (kt) <10 10≤X<20 20≤X<30 ≥30
Wind Gust (kt) <15 15≤X<25 25≤X<35 ≥35
Weather No Wx Reported VCTS,-TS,-FZRA,SN TS,FZRA +TS,+FZRA,+SN